sensor_id;sensor_type;location;lat;lon;timestamp;pressure;altitude;pressure_sealevel;temperature;humidity
59009;BME280;44794;42.652;23.318;2023-02-13T00:00:42;96166.28;;;-1.65;100.00
59009;BME280;44794;42.652;23.318;2023-02-13T00:03:08;96155.28;;;-1.70;100.00
59009;BME280;44794;42.652;23.318;2023-02-13T00:05:33;96161.25;;;-1.80;100.00
59009;BME280;44794;42.652;23.318;2023-02-13T00:07:58;96164.66;;;-1.75;100.00
59009;BME280;44794;42.652;23.318;2023-02-13T00:10:24;96170.59;;;-1.82;100.00
59009;BME280;44794;42.652;23.318;2023-02-13T00:12:49;96165.53;;;-1.91;100.00
59009;BME280;44794;42.652;23.318;2023-02-13T00:15:15;96162.94;;;-1.79;100.00
59009;BME280;44794;42.652;23.318;2023-02-13T00:17:40;96164.66;;;-1.75;100.00
59009;BME280;44794;42.652;23.318;2023-02-13T00:20:06;96159.53;;;-1.76;100.00
59009;BME280;44794;42.652;23.318;2023-02-13T00:22:36;96163.75;;;-1.74;100.00
59009;BME280;44794;42.652;23.318;2023-02-13T00:25:03;96160.34;;;-1.58;100.00
59009;BME280;44794;42.652;23.318;2023-02-13T00:27:29;96162.03;;;-1.60;100.00
59009;BME280;44794;42.652;23.318;2023-02-13T00:29:55;96165.41;;;-1.48;100.00
59009;BME280;44794;42.652;23.318;2023-02-13T00:32:20;96166.19;;;-1.34;100.00
59009;BME280;44794;42.652;23.318;2023-02-13T00:34:46;96167.00;;;-1.29;100.00
59009;BME280;44794;42.652;23.318;2023-02-13T00:37:11;96167.00;;;-1.24;100.00
59009;BME280;44794;42.652;23.318;2023-02-13T00:39:36;96162.75;;;-1.21;100.00
59009;BME280;44794;42.652;23.318;2023-02-13T00:42:02;96155.91;;;-1.14;100.00
59009;BME280;44794;42.652;23.318;2023-02-13T00:44:27;96155.88;;;-1.11;100.00
59009;BME280;44794;42.652;23.318;2023-02-13T00:46:53;96173.78;;;-1.16;100.00
59009;BME280;44794;42.652;23.318;2023-02-13T00:49:18;96186.56;;;-1.26;100.00
59009;BME280;44794;42.652;23.318;2023-02-13T00:51:44;96177.25;;;-1.36;100.00
59009;BME280;44794;42.652;23.318;2023-02-13T00:54:09;96178.06;;;-1.28;100.00
59009;BME280;44794;42.652;23.318;2023-02-13T00:56:34;96189.94;;;-1.26;100.00
59009;BME280;44794;42.652;23.318;2023-02-13T00:59:00;96185.72;;;-1.28;100.00
59009;BME280;44794;42.652;23.318;2023-02-13T01:01:25;96196.75;;;-1.29;100.00
59009;BME280;44794;42.652;23.318;2023-02-13T01:03:50;96200.19;;;-1.33;100.00
59009;BME280;44794;42.652;23.318;2023-02-13T01:06:16;96191.72;;;-1.41;100.00
59009;BME280;44794;42.652;23.318;2023-02-13T01:08:41;96195.06;;;-1.39;100.00
59009;BME280;44794;42.652;23.318;2023-02-13T01:11:07;96194.19;;;-1.28;100.00
59009;BME280;44794;42.652;23.318;2023-02-13T01:13:33;96184.03;;;-1.26;100.00
59009;BME280;44794;42.652;23.318;2023-02-13T01:15:59;96183.19;;;-1.37;100.00
59009;BME280;44794;42.652;23.318;2023-02-13T01:18:24;96190.84;;;-1.42;100.00
59009;BME280;44794;42.652;23.318;2023-02-13T01:21:00;96187.47;;;-1.44;100.00
59009;BME280;44794;42.652;23.318;2023-02-13T01:23:31;96201.06;;;-1.45;100.00
59009;BME280;44794;42.652;23.318;2023-02-13T01:25:56;96201.00;;;-1.36;100.00
59009;BME280;44794;42.652;23.318;2023-02-13T01:28:21;96202.75;;;-1.42;100.00
59009;BME280;44794;42.652;23.318;2023-02-13T01:30:54;96194.22;;;-1.29;100.00
59009;BME280;44794;42.652;23.318;2023-02-13T01:33:24;96195.09;;;-1.36;100.00
59009;BME280;44794;42.652;23.318;2023-02-13T01:35:50;96193.31;;;-1.16;100.00
59009;BME280;44794;42.652;23.318;2023-02-13T01:38:16;96193.25;;;-1.06;100.00
59009;BME280;44794;42.652;23.318;2023-02-13T01:40:48;96191.53;;;-0.99;100.00
59009;BME280;44794;42.652;23.318;2023-02-13T01:43:14;96195.75;;;-0.92;100.00
59009;BME280;44794;42.652;23.318;2023-02-13T01:45:41;96196.59;;;-0.96;100.00
59009;BME280;44794;42.652;23.318;2023-02-13T01:48:18;96199.13;;;-0.92;100.00
59009;BME280;44794;42.652;23.318;2023-02-13T01:50:48;96199.97;;;-0.90;100.00
59009;BME280;44794;42.652;23.318;2023-02-13T01:53:38;96206.84;;;-0.99;100.00
59009;BME280;44794;42.652;23.318;2023-02-13T01:56:13;96220.34;;;-0.84;100.00
59009;BME280;44794;42.652;23.318;2023-02-13T01:58:41;96216.91;;;-0.76;100.00
59009;BME280;44794;42.652;23.318;2023-02-13T02:01:08;96224.53;;;-0.71;100.00
59009;BME280;44794;42.652;23.318;2023-02-13T02:03:45;96221.97;;;-0.70;100.00
59009;BME280;44794;42.652;23.318;2023-02-13T02:06:22;96221.06;;;-0.60;100.00
59009;BME280;44794;42.652;23.318;2023-02-13T02:08:51;96228.72;;;-0.57;100.00
59009;BME280;44794;42.652;23.318;2023-02-13T02:11:30;96221.84;;;-0.46;100.00
59009;BME280;44794;42.652;23.318;2023-02-13T02:13:57;96223.53;;;-0.45;100.00
59009;BME280;44794;42.652;23.318;2023-02-13T02:16:24;96217.56;;;-0.44;100.00
59009;BME280;44794;42.652;23.318;2023-02-13T02:18:49;96220.03;;;-0.30;100.00
59009;BME280;44794;42.652;23.318;2023-02-13T02:21:59;96222.56;;;-0.27;100.00
59009;BME280;44794;42.652;23.318;2023-02-13T02:41:39;96222.63;;;-0.36;100.00
59009;BME280;44794;42.652;23.318;2023-02-13T02:49:40;96237.94;;;-0.36;100.00
59009;BME280;44794;42.652;23.318;2023-02-13T02:52:46;96238.75;;;-0.30;100.00
59009;BME280;44794;42.652;23.318;2023-02-13T02:56:00;96246.50;;;-0.48;100.00
59009;BME280;44794;42.652;23.318;2023-02-13T02:58:38;96252.38;;;-0.31;100.00
59009;BME280;44794;42.652;23.318;2023-02-13T03:01:27;96251.50;;;-0.28;100.00
59009;BME280;44794;42.652;23.318;2023-02-13T03:04:58;96260.78;;;-0.20;100.00
59009;BME280;44794;42.652;23.318;2023-02-13T03:07:22;96252.25;;;-0.17;100.00
59009;BME280;44794;42.652;23.318;2023-02-13T03:09:54;96259.13;;;-0.24;100.00
59009;BME280;44794;42.652;23.318;2023-02-13T03:12:49;96248.84;;;-0.13;100.00
59009;BME280;44794;42.652;23.318;2023-02-13T03:15:38;96256.44;;;-0.06;100.00
59009;BME280;44794;42.652;23.318;2023-02-13T03:18:24;96253.00;;;-0.02;100.00
59009;BME280;44794;42.652;23.318;2023-02-13T03:24:24;96258.97;;;0.00;100.00
59009;BME280;44794;42.652;23.318;2023-02-13T03:27:30;96262.31;;;0.05;100.00
59009;BME280;44794;42.652;23.318;2023-02-13T03:33:48;96269.22;;;-0.07;100.00
59009;BME280;44794;42.652;23.318;2023-02-13T03:36:16;96266.66;;;-0.07;100.00
59009;BME280;44794;42.652;23.318;2023-02-13T03:39:14;96273.47;;;-0.06;100.00
59009;BME280;44794;42.652;23.318;2023-02-13T03:41:52;96280.28;;;-0.08;100.00
59009;BME280;44794;42.652;23.318;2023-02-13T03:44:37;96275.97;;;-0.03;100.00
59009;BME280;44794;42.652;23.318;2023-02-13T03:47:05;96269.22;;;-0.09;100.00
59009;BME280;44794;42.652;23.318;2023-02-13T03:49:42;96271.78;;;-0.10;100.00
59009;BME280;44794;42.652;23.318;2023-02-13T03:55:12;96272.59;;;-0.01;100.00
59009;BME280;44794;42.652;23.318;2023-02-13T03:58:01;96274.34;;;-0.09;100.00
59009;BME280;44794;42.652;23.318;2023-02-13T04:00:51;96262.44;;;-0.13;100.00
59009;BME280;44794;42.652;23.318;2023-02-13T04:06:04;96259.03;;;-0.12;100.00
59009;BME280;44794;42.652;23.318;2023-02-13T04:08:32;96265.81;;;-0.08;100.00
59009;BME280;44794;42.652;23.318;2023-02-13T04:11:06;96257.38;;;-0.16;100.00
59009;BME280;44794;42.652;23.318;2023-02-13T04:13:37;96272.66;;;-0.14;100.00
59009;BME280;44794;42.652;23.318;2023-02-13T04:16:14;96273.53;;;-0.20;100.00
59009;BME280;44794;42.652;23.318;2023-02-13T04:18:41;96273.59;;;-0.23;100.00
59009;BME280;44794;42.652;23.318;2023-02-13T04:21:07;96274.44;;;-0.24;100.00
59009;BME280;44794;42.652;23.318;2023-02-13T04:23:33;96282.00;;;-0.12;100.00
59009;BME280;44794;42.652;23.318;2023-02-13T04:26:05;96271.00;;;-0.17;100.00
59009;BME280;44794;42.652;23.318;2023-02-13T04:28:32;96268.47;;;-0.26;100.00
59009;BME280;44794;42.652;23.318;2023-02-13T04:30:58;96288.91;;;-0.27;100.00
59009;BME280;44794;42.652;23.318;2023-02-13T04:33:23;96276.13;;;-0.24;100.00
59009;BME280;44794;42.652;23.318;2023-02-13T04:35:48;96280.34;;;-0.16;100.00
59009;BME280;44794;42.652;23.318;2023-02-13T04:38:14;96261.59;;;-0.12;100.00
59009;BME280;44794;42.652;23.318;2023-02-13T04:40:40;96270.91;;;-0.06;100.00
59009;BME280;44794;42.652;23.318;2023-02-13T04:43:05;96261.56;;;-0.04;100.00
59009;BME280;44794;42.652;23.318;2023-02-13T04:45:30;96267.50;;;-0.07;100.00
59009;BME280;44794;42.652;23.318;2023-02-13T04:47:57;96267.47;;;-0.03;100.00
59009;BME280;44794;42.652;23.318;2023-02-13T04:50:23;96265.81;;;-0.08;100.00
59009;BME280;44794;42.652;23.318;2023-02-13T04:52:52;96265.78;;;-0.03;100.00
59009;BME280;44794;42.652;23.318;2023-02-13T04:55:19;96271.75;;;-0.06;100.00
59009;BME280;44794;42.652;23.318;2023-02-13T04:57:44;96276.03;;;-0.09;100.00
59009;BME280;44794;42.652;23.318;2023-02-13T05:00:10;96287.94;;;-0.05;100.00
59009;BME280;44794;42.652;23.318;2023-02-13T05:02:36;96287.91;;;-0.01;100.00
59009;BME280;44794;42.652;23.318;2023-02-13T05:05:01;96292.94;;;0.08;100.00
59009;BME280;44794;42.652;23.318;2023-02-13T05:07:27;96298.03;;;0.08;100.00
59009;BME280;44794;42.652;23.318;2023-02-13T05:09:52;96293.72;;;0.17;100.00
59009;BME280;44794;42.652;23.318;2023-02-13T05:12:18;96309.00;;;0.25;100.00
59009;BME280;44794;42.652;23.318;2023-02-13T05:14:43;96304.75;;;0.24;99.97
59009;BME280;44794;42.652;23.318;2023-02-13T05:17:08;96302.97;;;0.29;99.88
59009;BME280;44794;42.652;23.318;2023-02-13T05:19:34;96308.06;;;0.35;99.83
59009;BME280;44794;42.652;23.318;2023-02-13T05:21:59;96307.16;;;0.42;99.45
59009;BME280;44794;42.652;23.318;2023-02-13T05:24:43;96316.53;;;0.40;99.01
59009;BME280;44794;42.652;23.318;2023-02-13T05:27:08;96310.59;;;0.36;98.52
59009;BME280;44794;42.652;23.318;2023-02-13T05:29:34;96316.56;;;0.37;98.48
59009;BME280;44794;42.652;23.318;2023-02-13T05:31:59;96316.50;;;0.43;98.27
59009;BME280;44794;42.652;23.318;2023-02-13T05:34:26;96313.97;;;0.41;97.98
59009;BME280;44794;42.652;23.318;2023-02-13T05:36:52;96319.84;;;0.54;97.79
59009;BME280;44794;42.652;23.318;2023-02-13T05:39:18;96325.81;;;0.51;97.60
59009;BME280;44794;42.652;23.318;2023-02-13T05:41:44;96324.09;;;0.55;97.43
59009;BME280;44794;42.652;23.318;2023-02-13T05:44:10;96330.94;;;0.51;97.28
59009;BME280;44794;42.652;23.318;2023-02-13T05:46:38;96338.69;;;0.41;97.18
59009;BME280;44794;42.652;23.318;2023-02-13T05:49:04;96322.50;;;0.42;98.26
59009;BME280;44794;42.652;23.318;2023-02-13T05:51:29;96328.44;;;0.39;98.07
59009;BME280;44794;42.652;23.318;2023-02-13T05:53:55;96332.69;;;0.45;98.13
59009;BME280;44794;42.652;23.318;2023-02-13T05:56:20;96336.88;;;0.52;98.01
59009;BME280;44794;42.652;23.318;2023-02-13T05:58:46;96331.75;;;0.52;97.63
59009;BME280;44794;42.652;23.318;2023-02-13T06:01:12;96338.56;;;0.53;97.45
59009;BME280;44794;42.652;23.318;2023-02-13T06:03:38;96348.00;;;0.45;96.99
59009;BME280;44794;42.652;23.318;2023-02-13T06:06:04;96339.44;;;0.50;97.79
59009;BME280;44794;42.652;23.318;2023-02-13T06:08:30;96346.25;;;0.53;97.64
59009;BME280;44794;42.652;23.318;2023-02-13T06:10:55;96347.03;;;0.61;97.49
59009;BME280;44794;42.652;23.318;2023-02-13T06:13:21;96350.34;;;0.70;97.26
59009;BME280;44794;42.652;23.318;2023-02-13T06:15:47;96347.81;;;0.70;96.79
59009;BME280;44794;42.652;23.318;2023-02-13T06:18:12;96354.63;;;0.68;96.33
59009;BME280;44794;42.652;23.318;2023-02-13T06:20:40;96355.59;;;0.58;96.25
59009;BME280;44794;42.652;23.318;2023-02-13T06:23:05;96358.88;;;0.69;95.32
59009;BME280;44794;42.652;23.318;2023-02-13T06:25:31;96361.47;;;0.65;95.06
59009;BME280;44794;42.652;23.318;2023-02-13T06:27:58;96364.13;;;0.54;94.95
59009;BME280;44794;42.652;23.318;2023-02-13T06:30:23;96358.09;;;0.64;94.94
59009;BME280;44794;42.652;23.318;2023-02-13T06:32:49;96359.69;;;0.74;94.80
59009;BME280;44794;42.652;23.318;2023-02-13T06:35:14;96368.94;;;0.88;94.44
59009;BME280;44794;42.652;23.318;2023-02-13T06:37:41;96379.88;;;1.04;93.94
59009;BME280;44794;42.652;23.318;2023-02-13T06:40:10;96375.63;;;1.01;93.08
59009;BME280;44794;42.652;23.318;2023-02-13T06:42:36;96376.41;;;1.09;93.10
59009;BME280;44794;42.652;23.318;2023-02-13T06:45:01;96380.75;;;1.04;92.96
59009;BME280;44794;42.652;23.318;2023-02-13T06:47:27;96385.00;;;1.04;92.34
59009;BME280;44794;42.652;23.318;2023-02-13T06:49:52;96381.50;;;1.12;91.94
59009;BME280;44794;42.652;23.318;2023-02-13T06:52:18;96386.59;;;1.12;91.23
59009;BME280;44794;42.652;23.318;2023-02-13T06:54:44;96385.88;;;0.98;91.57
59009;BME280;44794;42.652;23.318;2023-02-13T06:57:09;96383.19;;;1.13;91.48
59009;BME280;44794;42.652;23.318;2023-02-13T06:59:35;96380.56;;;1.22;91.36
59009;BME280;44794;42.652;23.318;2023-02-13T07:02:00;96384.75;;;1.29;90.87
59009;BME280;44794;42.652;23.318;2023-02-13T07:04:26;96383.88;;;1.30;90.01
59009;BME280;44794;42.652;23.318;2023-02-13T07:06:55;96384.69;;;1.34;89.86
59009;BME280;44794;42.652;23.318;2023-02-13T07:09:24;96374.59;;;1.22;90.13
59009;BME280;44794;42.652;23.318;2023-02-13T07:11:50;96383.81;;;1.39;90.75
59009;BME280;44794;42.652;23.318;2023-02-13T07:14:15;96376.13;;;1.36;89.74
59009;BME280;44794;42.652;23.318;2023-02-13T07:16:41;96373.50;;;1.42;89.32
59009;BME280;44794;42.652;23.318;2023-02-13T07:19:06;96386.34;;;1.38;89.29
59009;BME280;44794;42.652;23.318;2023-02-13T07:21:32;96387.22;;;1.35;89.59
59009;BME280;44794;42.652;23.318;2023-02-13T07:23:57;96388.72;;;1.54;89.43
59009;BME280;44794;42.652;23.318;2023-02-13T07:26:23;96393.03;;;1.52;88.52
59009;BME280;44794;42.652;23.318;2023-02-13T07:28:48;96400.81;;;1.43;87.99
59009;BME280;44794;42.652;23.318;2023-02-13T07:31:13;96394.19;;;1.24;88.88
59009;BME280;44794;42.652;23.318;2023-02-13T07:33:39;96396.53;;;1.44;88.91
59009;BME280;44794;42.652;23.318;2023-02-13T07:36:04;96393.91;;;1.48;88.10
59009;BME280;44794;42.652;23.318;2023-02-13T07:38:31;96392.09;;;1.60;87.98
59009;BME280;44794;42.652;23.318;2023-02-13T07:41:00;96395.47;;;1.61;87.48
59009;BME280;44794;42.652;23.318;2023-02-13T07:43:26;96392.91;;;1.61;87.46
59009;BME280;44794;42.652;23.318;2023-02-13T07:45:51;96395.22;;;1.82;87.28
59009;BME280;44794;42.652;23.318;2023-02-13T07:48:23;96403.69;;;1.88;86.51
59009;BME280;44794;42.652;23.318;2023-02-13T07:50:52;96405.44;;;1.85;85.93
59009;BME280;44794;42.652;23.318;2023-02-13T07:53:18;96388.78;;;1.51;86.28
59009;BME280;44794;42.652;23.318;2023-02-13T07:55:43;96401.41;;;1.66;86.83
59009;BME280;44794;42.652;23.318;2023-02-13T07:58:09;96396.47;;;1.51;86.87
59009;BME280;44794;42.652;23.318;2023-02-13T08:00:35;96394.41;;;1.78;86.90
59009;BME280;44794;42.652;23.318;2023-02-13T08:03:00;96399.13;;;2.11;86.03
59009;BME280;44794;42.652;23.318;2023-02-13T08:05:27;96403.91;;;2.36;84.98
59009;BME280;44794;42.652;23.318;2023-02-13T08:07:53;96404.78;;;2.34;83.43
59009;BME280;44794;42.652;23.318;2023-02-13T08:10:19;96402.34;;;2.26;83.48
59009;BME280;44794;42.652;23.318;2023-02-13T08:13:04;96407.91;;;1.94;84.02
59009;BME280;44794;42.652;23.318;2023-02-13T08:15:29;96395.47;;;1.61;85.62
59009;BME280;44794;42.652;23.318;2023-02-13T08:17:55;96394.38;;;1.84;85.89
59009;BME280;44794;42.652;23.318;2023-02-13T08:20:20;96396.91;;;1.86;85.35
59009;BME280;44794;42.652;23.318;2023-02-13T08:22:46;96407.88;;;1.95;85.07
59009;BME280;44794;42.652;23.318;2023-02-13T08:25:12;96395.84;;;2.00;84.65
59009;BME280;44794;42.652;23.318;2023-02-13T08:27:37;96400.91;;;2.05;84.22
59009;BME280;44794;42.652;23.318;2023-02-13T08:30:04;96399.13;;;2.13;84.12
59009;BME280;44794;42.652;23.318;2023-02-13T08:32:29;96391.81;;;2.46;83.75
59009;BME280;44794;42.652;23.318;2023-02-13T08:34:55;96397.56;;;2.61;82.95
59009;BME280;44794;42.652;23.318;2023-02-13T08:37:20;96394.81;;;2.73;81.79
59009;BME280;44794;42.652;23.318;2023-02-13T08:39:46;96412.09;;;2.62;81.61
59009;BME280;44794;42.652;23.318;2023-02-13T08:42:11;96410.50;;;2.52;81.51
59009;BME280;44794;42.652;23.318;2023-02-13T08:44:36;96406.25;;;2.51;82.08
59009;BME280;44794;42.652;23.318;2023-02-13T08:47:05;96406.38;;;2.96;81.78
59009;BME280;44794;42.652;23.318;2023-02-13T08:49:31;96411.78;;;2.82;80.13
59009;BME280;44794;42.652;23.318;2023-02-13T08:51:57;96400.66;;;2.81;80.40
59009;BME280;44794;42.652;23.318;2023-02-13T08:54:22;96402.22;;;2.91;80.16
59009;BME280;44794;42.652;23.318;2023-02-13T08:56:47;96406.28;;;3.04;79.66
59009;BME280;44794;42.652;23.318;2023-02-13T08:59:13;96417.28;;;3.12;78.77
59009;BME280;44794;42.652;23.318;2023-02-13T09:01:38;96407.53;;;2.79;79.75
59009;BME280;44794;42.652;23.318;2023-02-13T09:04:04;96407.16;;;3.03;79.95
59009;BME280;44794;42.652;23.318;2023-02-13T09:06:29;96402.41;;;3.29;79.22
59009;BME280;44794;42.652;23.318;2023-02-13T09:08:55;96406.13;;;3.13;79.35
59009;BME280;44794;42.652;23.318;2023-02-13T09:11:20;96402.22;;;3.41;78.95
59009;BME280;44794;42.652;23.318;2023-02-13T09:13:48;96409.56;;;3.59;78.17
59009;BME280;44794;42.652;23.318;2023-02-13T09:16:14;96406.34;;;3.93;77.09
59009;BME280;44794;42.652;23.318;2023-02-13T09:18:40;96412.38;;;3.90;75.43
59009;BME280;44794;42.652;23.318;2023-02-13T09:21:07;96414.22;;;3.84;75.57
59009;BME280;44794;42.652;23.318;2023-02-13T09:23:35;96410.94;;;4.18;75.00
59009;BME280;44794;42.652;23.318;2023-02-13T09:26:02;96402.53;;;4.51;73.92
59009;BME280;44794;42.652;23.318;2023-02-13T09:28:29;96405.53;;;5.06;71.97
59009;BME280;44794;42.652;23.318;2023-02-13T09:30:55;96402.38;;;5.28;70.55
59009;BME280;44794;42.652;23.318;2023-02-13T09:33:20;96399.47;;;5.41;69.53
59009;BME280;44794;42.652;23.318;2023-02-13T09:35:45;96400.28;;;5.75;67.74
59009;BME280;44794;42.652;23.318;2023-02-13T09:38:11;96400.94;;;5.83;64.94
59009;BME280;44794;42.652;23.318;2023-02-13T09:40:54;96410.56;;;5.77;64.27
59009;BME280;44794;42.652;23.318;2023-02-13T09:43:51;96402.47;;;5.90;64.86
59009;BME280;44794;42.652;23.318;2023-02-13T09:46:35;96395.03;;;6.39;62.93
59009;BME280;44794;42.652;23.318;2023-02-13T09:49:10;96394.38;;;6.32;60.39
59009;BME280;44794;42.652;23.318;2023-02-13T09:51:36;96392.38;;;6.13;61.24
59009;BME280;44794;42.652;23.318;2023-02-13T09:54:05;96387.78;;;5.60;62.49
59009;BME280;44794;42.652;23.318;2023-02-13T09:57:01;96371.97;;;4.38;68.19
59009;BME280;44794;42.652;23.318;2023-02-13T10:02:41;96360.16;;;2.99;77.36
59009;BME280;44794;42.652;23.318;2023-02-13T10:16:01;96334.34;;;3.08;77.67
59009;BME280;44794;42.652;23.318;2023-02-13T10:18:37;96334.34;;;3.07;78.10
59009;BME280;44794;42.652;23.318;2023-02-13T10:21:07;96331.66;;;3.14;77.75
59009;BME280;44794;42.652;23.318;2023-02-13T10:26:21;96335.25;;;3.04;78.03
59009;BME280;44794;42.652;23.318;2023-02-13T10:28:58;96319.75;;;3.10;78.70
59009;BME280;44794;42.652;23.318;2023-02-13T10:31:44;96310.31;;;3.12;79.07
59009;BME280;44794;42.652;23.318;2023-02-13T10:34:15;96309.44;;;3.13;78.46
59009;BME280;44794;42.652;23.318;2023-02-13T10:36:44;96306.97;;;3.09;78.96
59009;BME280;44794;42.652;23.318;2023-02-13T10:39:23;96309.63;;;3.03;79.34
59009;BME280;44794;42.652;23.318;2023-02-13T10:44:53;96296.44;;;3.21;78.92
59009;BME280;44794;42.652;23.318;2023-02-13T10:55:17;96289.63;;;3.21;77.17
59009;BME280;44794;42.652;23.318;2023-02-13T11:00:55;96285.16;;;3.31;77.22
59009;BME280;44794;42.652;23.318;2023-02-13T11:03:25;96290.25;;;3.34;77.08
59009;BME280;44794;42.652;23.318;2023-02-13T11:05:52;96270.91;;;3.15;77.03
59009;BME280;44794;42.652;23.318;2023-02-13T11:10:58;96277.84;;;3.52;75.10
59009;BME280;44794;42.652;23.318;2023-02-13T11:13:26;96269.28;;;3.53;74.43
59009;BME280;44794;42.652;23.318;2023-02-13T11:16:12;96266.44;;;3.67;73.28
59009;BME280;44794;42.652;23.318;2023-02-13T11:18:43;96267.81;;;3.81;72.19
59009;BME280;44794;42.652;23.318;2023-02-13T11:21:20;96263.38;;;3.89;71.79
59009;BME280;44794;42.652;23.318;2023-02-13T11:23:50;96250.72;;;3.80;70.91
59009;BME280;44794;42.652;23.318;2023-02-13T11:28:52;96243.13;;;3.75;69.00
59009;BME280;44794;42.652;23.318;2023-02-13T11:31:25;96240.97;;;3.95;69.54
59009;BME280;44794;42.652;23.318;2023-02-13T11:33:51;96232.91;;;4.10;68.86
59009;BME280;44794;42.652;23.318;2023-02-13T11:36:31;96228.16;;;4.29;68.88
59009;BME280;44794;42.652;23.318;2023-02-13T11:39:03;96225.38;;;4.38;67.95
59009;BME280;44794;42.652;23.318;2023-02-13T11:41:31;96215.03;;;4.39;67.36
59009;BME280;44794;42.652;23.318;2023-02-13T11:44:01;96219.53;;;4.31;65.62
59009;BME280;44794;42.652;23.318;2023-02-13T11:46:55;96221.91;;;4.39;65.54
59009;BME280;44794;42.652;23.318;2023-02-13T11:49:26;96213.38;;;4.37;66.15
59009;BME280;44794;42.652;23.318;2023-02-13T11:51:57;96206.31;;;4.44;65.70
59009;BME280;44794;42.652;23.318;2023-02-13T11:54:39;96201.00;;;4.52;65.97
59009;BME280;44794;42.652;23.318;2023-02-13T11:57:22;96192.81;;;4.70;64.98
59009;BME280;44794;42.652;23.318;2023-02-13T11:59:50;96183.88;;;4.83;65.06
59009;BME280;44794;42.652;23.318;2023-02-13T12:04:52;96183.81;;;4.86;63.47
59009;BME280;44794;42.652;23.318;2023-02-13T12:07:24;96181.19;;;4.87;63.35
59009;BME280;44794;42.652;23.318;2023-02-13T12:10:00;96177.44;;;4.99;63.46
59009;BME280;44794;42.652;23.318;2023-02-13T12:12:32;96174.25;;;5.19;62.54
59009;BME280;44794;42.652;23.318;2023-02-13T12:15:02;96168.47;;;5.12;62.30
59009;BME280;44794;42.652;23.318;2023-02-13T12:17:30;96170.13;;;5.14;62.11
59009;BME280;44794;42.652;23.318;2023-02-13T12:19:56;96177.66;;;5.21;61.36
59009;BME280;44794;42.652;23.318;2023-02-13T12:31:01;96167.63;;;5.41;58.86
59009;BME280;44794;42.652;23.318;2023-02-13T12:41:19;96157.19;;;5.46;57.79
59009;BME280;44794;42.652;23.318;2023-02-13T13:06:40;96136.13;;;6.14;55.09
59009;BME280;44794;42.652;23.318;2023-02-13T13:12:10;96126.22;;;6.02;55.54
59009;BME280;44794;42.652;23.318;2023-02-13T13:20:42;96128.00;;;6.26;54.16
59009;BME280;44794;42.652;23.318;2023-02-13T13:28:39;96104.97;;;5.94;54.69
59009;BME280;44794;42.652;23.318;2023-02-13T13:31:05;96113.22;;;6.05;54.74
59009;BME280;44794;42.652;23.318;2023-02-13T13:33:32;96108.50;;;6.17;54.54
59009;BME280;44794;42.652;23.318;2023-02-13T13:46:59;96099.63;;;6.26;54.55
59009;BME280;44794;42.652;23.318;2023-02-13T13:49:52;96104.19;;;6.18;54.30
59009;BME280;44794;42.652;23.318;2023-02-13T13:52:24;96097.75;;;6.05;54.63
59009;BME280;44794;42.652;23.318;2023-02-13T13:54:50;96103.94;;;5.99;54.97
59009;BME280;44794;42.652;23.318;2023-02-13T13:58:14;96095.88;;;6.10;55.42
59009;BME280;44794;42.652;23.318;2023-02-13T14:02:39;96093.28;;;6.10;54.86
59009;BME280;44794;42.652;23.318;2023-02-13T14:05:24;96096.13;;;6.02;55.36
59009;BME280;44794;42.652;23.318;2023-02-13T14:08:01;96101.09;;;6.08;55.36
59009;BME280;44794;42.652;23.318;2023-02-13T14:36:37;96061.13;;;5.68;56.54
59009;BME280;44794;42.652;23.318;2023-02-13T14:39:07;96059.34;;;5.70;56.33
59009;BME280;44794;42.652;23.318;2023-02-13T14:41:56;96063.84;;;5.64;56.77
59009;BME280;44794;42.652;23.318;2023-02-13T14:46:59;96063.28;;;5.54;57.11
59009;BME280;44794;42.652;23.318;2023-02-13T14:49:35;96068.44;;;5.54;56.90
59009;BME280;44794;42.652;23.318;2023-02-13T14:52:06;96058.81;;;5.61;57.08
59009;BME280;44794;42.652;23.318;2023-02-13T14:54:38;96059.28;;;5.46;56.99
59009;BME280;44794;42.652;23.318;2023-02-13T14:57:28;96061.88;;;5.44;57.31
59009;BME280;44794;42.652;23.318;2023-02-13T14:59:57;96056.91;;;5.40;57.47
59009;BME280;44794;42.652;23.318;2023-02-13T15:02:25;96050.19;;;5.34;57.96
59009;BME280;44794;42.652;23.318;2023-02-13T15:05:05;96056.38;;;5.29;58.18
59009;BME280;44794;42.652;23.318;2023-02-13T15:07:36;96052.22;;;5.25;58.71
59009;BME280;44794;42.652;23.318;2023-02-13T15:12:34;96052.56;;;5.13;58.75
59009;BME280;44794;42.652;23.318;2023-02-13T15:15:01;96058.66;;;5.11;58.74
59009;BME280;44794;42.652;23.318;2023-02-13T15:17:32;96047.72;;;5.03;59.14
59009;BME280;44794;42.652;23.318;2023-02-13T15:20:15;96048.91;;;4.93;59.62
59009;BME280;44794;42.652;23.318;2023-02-13T15:22:45;96055.94;;;4.86;59.69
59009;BME280;44794;42.652;23.318;2023-02-13T15:25:31;96061.16;;;4.85;59.66
59009;BME280;44794;42.652;23.318;2023-02-13T15:27:58;96063.91;;;4.79;59.71
59009;BME280;44794;42.652;23.318;2023-02-13T15:32:57;96061.06;;;4.59;60.60
59009;BME280;44794;42.652;23.318;2023-02-13T15:35:31;96063.63;;;4.59;60.85
59009;BME280;44794;42.652;23.318;2023-02-13T15:37:57;96057.91;;;4.48;61.01
59009;BME280;44794;42.652;23.318;2023-02-13T15:40:27;96070.72;;;4.49;61.23
59009;BME280;44794;42.652;23.318;2023-02-13T15:42:53;96064.81;;;4.46;61.55
59009;BME280;44794;42.652;23.318;2023-02-13T15:45:20;96069.19;;;4.44;62.19
59009;BME280;44794;42.652;23.318;2023-02-13T15:47:47;96071.50;;;4.21;62.71
59009;BME280;44794;42.652;23.318;2023-02-13T15:50:19;96075.69;;;4.25;62.81
59009;BME280;44794;42.652;23.318;2023-02-13T15:52:46;96076.00;;;4.13;63.24
59009;BME280;44794;42.652;23.318;2023-02-13T15:55:21;96075.28;;;4.08;63.56
59009;BME280;44794;42.652;23.318;2023-02-13T15:57:47;96079.63;;;4.06;63.91
59009;BME280;44794;42.652;23.318;2023-02-13T16:00:24;96073.09;;;3.93;64.48
59009;BME280;44794;42.652;23.318;2023-02-13T16:02:51;96069.88;;;3.85;65.05